Time;durP1;ratioP1;P1;durP2;ratioP2;P2;SDS_P1;SDS_P2;PMS_P1;PMS_P2;Temp;Humidity;BMP_temperature;BMP_pressure;BME280_temperature;BME280_humidity;BME280_pressure;Samples;Min_cycle;Max_cycle;Signal;HPM_P1;HPM_P2
2023/09/08 00:01:33;;;;;;;;;;;;;;;21.44;29.44;98362.78;5058128;28;925;-77
2023/09/08 00:03:58;;;;;;;;;;;;;;;21.38;29.64;98353.19;5058006;28;877;-77
2023/09/08 00:06:24;;;;;;;;;;;;;;;21.64;29.06;98354.28;5020430;28;950;-77
2023/09/08 00:08:49;;;;;;;;;;;;;;;21.69;29.00;98353.75;5037343;28;818;-77
2023/09/08 00:11:15;;;;;;;;;;;;;;;21.72;29.11;98349.28;5020495;28;1770;-77
2023/09/08 00:13:41;;;;;;;;;;;;;;;21.73;28.67;98348.03;5020555;28;1906;-77
2023/09/08 00:16:07;;;;;;;;;;;;;;;21.38;29.43;98349.56;5004491;28;996;-77
2023/09/08 00:18:33;;;;;;;;;;;;;;;21.46;29.17;98349.00;4981164;28;1452;-77
2023/09/08 00:20:58;;;;;;;;;;;;;;;21.39;29.32;98342.66;4981327;28;1343;-77
2023/09/08 00:23:24;;;;;;;;;;;;;;;21.24;29.83;98340.13;4997209;28;841;-77
2023/09/08 00:25:49;;;;;;;;;;;;;;;21.53;29.22;98342.38;4997756;28;918;-77
2023/09/08 00:28:15;;;;;;;;;;;;;;;21.48;29.37;98346.53;4981280;28;1151;-77
2023/09/08 00:30:40;;;;;;;;;;;;;;;21.32;29.66;98338.75;4997727;28;850;-77
2023/09/08 00:33:08;;;;;;;;;;;;;;;21.25;29.53;98341.72;4997011;28;1001;-77
2023/09/08 00:35:35;;;;;;;;;;;;;;;21.47;29.12;98332.81;4958309;29;1906;-76
2023/09/08 00:38:00;;;;;;;;;;;;;;;21.42;29.26;98336.16;4973355;28;1338;-77
2023/09/08 00:40:26;;;;;;;;;;;;;;;21.27;29.53;98327.91;4961548;28;1016;-77
2023/09/08 00:42:52;;;;;;;;;;;;;;;21.30;29.36;98324.25;4961553;28;950;-77
2023/09/08 00:45:18;;;;;;;;;;;;;;;21.58;28.99;98333.38;4977490;28;952;-77
2023/09/08 00:47:43;;;;;;;;;;;;;;;21.41;29.09;98323.25;4977542;28;933;-77
2023/09/08 00:50:09;;;;;;;;;;;;;;;21.56;29.14;98330.19;5007268;28;904;-78
2023/09/08 00:52:34;;;;;;;;;;;;;;;21.56;28.97;98335.84;5016873;28;873;-77
2023/09/08 00:55:00;;;;;;;;;;;;;;;21.61;28.92;98343.84;5016314;28;1910;-77
2023/09/08 00:57:26;;;;;;;;;;;;;;;21.52;29.07;98332.31;5016588;28;1094;-78
2023/09/08 00:59:52;;;;;;;;;;;;;;;21.77;28.41;98335.41;4961030;28;1161;-77
2023/09/08 01:02:17;;;;;;;;;;;;;;;21.69;28.58;98333.94;4938720;29;1247;-77
2023/09/08 01:04:43;;;;;;;;;;;;;;;21.39;29.22;98342.66;4907234;29;1152;-77
2023/09/08 01:07:09;;;;;;;;;;;;;;;21.74;28.63;98336.25;4982164;28;1220;-77
2023/09/08 01:09:34;;;;;;;;;;;;;;;21.74;28.32;98333.44;4980539;28;1207;-77
2023/09/08 01:12:01;;;;;;;;;;;;;;;21.67;28.22;98336.44;4980580;28;1139;-77
2023/09/08 01:14:28;;;;;;;;;;;;;;;21.47;28.88;98327.94;4980790;28;1987;-77
2023/09/08 01:16:53;;;;;;;;;;;;;;;21.58;28.81;98328.50;4980470;28;1452;-77
2023/09/08 01:19:19;;;;;;;;;;;;;;;21.75;28.40;98337.84;4976736;28;1237;-78
2023/09/08 01:21:47;;;;;;;;;;;;;;;21.69;28.44;98327.47;4976920;28;1181;-78
2023/09/08 01:24:33;;;;;;;;;;;;;;;21.53;28.82;98331.06;4976912;28;1131;-77
2023/09/08 01:26:58;;;;;;;;;;;;;;;21.55;28.75;98334.25;4957345;29;993;-77
2023/09/08 01:29:24;;;;;;;;;;;;;;;21.42;29.01;98327.66;4941766;29;1163;-78
2023/09/08 01:31:50;;;;;;;;;;;;;;;21.52;28.83;98335.13;4974996;28;1033;-78
2023/09/08 01:34:16;;;;;;;;;;;;;;;21.15;29.21;98334.22;4960712;28;1910;-77
2023/09/08 01:36:41;;;;;;;;;;;;;;;21.36;28.89;98327.38;4977018;28;1036;-77
2023/09/08 01:39:06;;;;;;;;;;;;;;;21.43;28.92;98337.75;4965428;28;1160;-77
2023/09/08 01:41:32;;;;;;;;;;;;;;;21.13;29.37;98331.00;4979915;28;1131;-77
2023/09/08 01:43:58;;;;;;;;;;;;;;;21.37;29.02;98333.81;4963715;28;1327;-78
2023/09/08 01:46:24;;;;;;;;;;;;;;;21.51;28.77;98323.00;4957277;29;1450;-77
2023/09/08 01:48:49;;;;;;;;;;;;;;;21.45;28.84;98323.94;4941006;29;981;-78
2023/09/08 01:51:15;;;;;;;;;;;;;;;21.91;28.00;98320.09;4957016;29;925;-76
2023/09/08 01:53:40;;;;;;;;;;;;;;;21.66;28.25;98329.16;4941269;29;1902;-77
2023/09/08 01:56:06;;;;;;;;;;;;;;;21.55;28.73;98328.56;4945995;28;1009;-77
2023/09/08 01:58:33;;;;;;;;;;;;;;;21.42;28.87;98324.81;4975998;28;1199;-77
2023/09/08 02:01:05;;;;;;;;;;;;;;;21.48;28.54;98321.03;4976933;28;1371;-77
2023/09/08 02:03:31;;;;;;;;;;;;;;;21.30;29.10;98329.91;4990247;28;1024;-77
2023/09/08 02:05:57;;;;;;;;;;;;;;;21.19;29.23;98329.31;5018793;28;875;-77
2023/09/08 02:08:22;;;;;;;;;;;;;;;21.27;29.23;98330.75;5018655;28;1044;-77
2023/09/08 02:10:48;;;;;;;;;;;;;;;21.33;28.75;98328.22;5018640;28;1237;-77
2023/09/08 02:13:13;;;;;;;;;;;;;;;21.35;28.96;98327.78;5034950;28;976;-77
2023/09/08 02:15:39;;;;;;;;;;;;;;;21.15;29.52;98334.22;4986101;28;1918;-77
2023/09/08 02:18:06;;;;;;;;;;;;;;;21.72;28.40;98327.41;5030600;28;1326;-77
2023/09/08 02:20:32;;;;;;;;;;;;;;;21.57;28.62;98328.97;5039496;28;1227;-77
2023/09/08 02:22:58;;;;;;;;;;;;;;;21.47;29.04;98321.47;5039214;28;1162;-77
2023/09/08 02:25:24;;;;;;;;;;;;;;;21.55;28.94;98326.56;5039074;28;808;-77
2023/09/08 02:27:49;;;;;;;;;;;;;;;21.63;28.76;98324.38;5055461;28;914;-77
2023/09/08 02:30:15;;;;;;;;;;;;;;;21.36;29.13;98320.91;5039397;28;1165;-77
2023/09/08 02:32:42;;;;;;;;;;;;;;;21.42;29.26;98319.97;5039524;28;1263;-77
2023/09/08 02:35:09;;;;;;;;;;;;;;;21.61;28.93;98315.53;5039594;28;1914;-77
2023/09/08 02:37:35;;;;;;;;;;;;;;;21.24;29.50;98325.97;5022572;28;1396;-77
2023/09/08 02:40:03;;;;;;;;;;;;;;;21.49;29.03;98314.13;5055894;28;840;-76
2023/09/08 02:42:29;;;;;;;;;;;;;;;21.28;29.38;98315.34;5039310;28;1361;-78
2023/09/08 02:44:56;;;;;;;;;;;;;;;21.33;29.48;98311.25;5039193;28;1289;-77
2023/09/08 02:47:21;;;;;;;;;;;;;;;21.35;29.27;98313.63;5055743;28;1120;-77
2023/09/08 02:49:47;;;;;;;;;;;;;;;21.42;28.97;98307.84;5055701;28;1130;-77
2023/09/08 02:52:12;;;;;;;;;;;;;;;21.47;29.20;98310.16;5055981;28;731;-77
2023/09/08 02:54:39;;;;;;;;;;;;;;;21.48;29.09;98295.56;5055473;28;1987;-77
2023/09/08 02:57:04;;;;;;;;;;;;;;;21.26;29.17;98306.50;5055522;28;1183;-77
2023/09/08 02:59:30;;;;;;;;;;;;;;;21.66;28.67;98300.03;5055612;28;1169;-77
2023/09/08 03:01:55;;;;;;;;;;;;;;;21.52;29.08;98315.31;5039230;28;1118;-77
2023/09/08 03:04:23;;;;;;;;;;;;;;;21.47;28.89;98304.50;5055454;28;778;-77
2023/09/08 03:06:48;;;;;;;;;;;;;;;21.24;29.43;98305.34;5038778;28;954;-77
2023/09/08 03:09:14;;;;;;;;;;;;;;;21.07;29.73;98305.25;5040035;28;1281;-77
2023/09/08 03:11:39;;;;;;;;;;;;;;;21.21;29.12;98304.19;5021512;28;1219;-77
2023/09/08 03:14:06;;;;;;;;;;;;;;;21.32;29.32;98307.63;5021800;28;1934;-77
2023/09/08 03:16:31;;;;;;;;;;;;;;;21.33;29.11;98294.25;5021774;28;1120;-77
2023/09/08 03:18:58;;;;;;;;;;;;;;;21.59;28.59;98303.81;5001931;28;1439;-77
2023/09/08 03:21:24;;;;;;;;;;;;;;;21.51;28.54;98302.41;4986071;28;1188;-77
2023/09/08 03:23:49;;;;;;;;;;;;;;;21.32;28.97;98304.78;4959576;29;1248;-76
2023/09/08 03:26:15;;;;;;;;;;;;;;;21.40;29.08;98299.78;4960255;29;1041;-77
2023/09/08 03:28:41;;;;;;;;;;;;;;;21.25;29.22;98304.91;4943528;29;1106;-77
2023/09/08 03:31:07;;;;;;;;;;;;;;;21.36;28.96;98304.72;4959699;28;1116;-77
2023/09/08 03:33:34;;;;;;;;;;;;;;;21.47;28.84;98310.16;4959084;28;1907;-77
2023/09/08 03:36:00;;;;;;;;;;;;;;;21.29;28.98;98311.28;4927417;29;1319;-77
2023/09/08 03:38:26;;;;;;;;;;;;;;;21.06;29.42;98308.53;4958823;29;1208;-77
2023/09/08 03:40:53;;;;;;;;;;;;;;;21.33;29.05;98311.25;4942962;28;1125;-78
2023/09/08 03:43:18;;;;;;;;;;;;;;;21.07;29.15;98305.25;4930337;28;1321;-77
2023/09/08 03:45:44;;;;;;;;;;;;;;;21.37;29.04;98311.97;4962064;28;1116;-78
2023/09/08 03:48:10;;;;;;;;;;;;;;;21.29;28.95;98305.63;4962599;28;1072;-77
2023/09/08 03:50:35;;;;;;;;;;;;;;;21.40;28.99;98308.28;4977333;28;1621;-78
2023/09/08 03:53:02;;;;;;;;;;;;;;;21.30;29.03;98301.59;4982063;28;1238;-78
2023/09/08 03:55:27;;;;;;;;;;;;;;;21.24;29.31;98314.66;4981532;28;1903;-78
2023/09/08 03:57:53;;;;;;;;;;;;;;;21.47;28.76;98310.16;4981875;28;941;-77
2023/09/08 04:00:21;;;;;;;;;;;;;;;21.31;29.17;98311.69;4988474;28;839;-77
2023/09/08 04:02:47;;;;;;;;;;;;;;;21.63;28.47;98312.25;5024298;28;977;-77
2023/09/08 04:05:13;;;;;;;;;;;;;;;21.58;28.86;98305.84;5036955;28;1098;-78
2023/09/08 04:07:38;;;;;;;;;;;;;;;21.43;28.86;98320.75;5057997;28;1343;-79
2023/09/08 04:10:04;;;;;;;;;;;;;;;21.42;28.83;98316.34;5057993;28;1161;-79
2023/09/08 04:12:29;;;;;;;;;;;;;;;21.47;28.83;98321.47;5024841;28;1119;-78
2023/09/08 04:14:55;;;;;;;;;;;;;;;21.47;28.78;98315.81;5058008;28;1906;-78
2023/09/08 04:17:21;;;;;;;;;;;;;;;21.41;29.14;98321.19;5041203;28;1188;-77
2023/09/08 04:19:46;;;;;;;;;;;;;;;21.49;28.90;98330.31;5019974;28;958;-77
2023/09/08 04:22:12;;;;;;;;;;;;;;;21.36;28.97;98326.56;5020632;28;972;-78
2023/09/08 04:24:37;;;;;;;;;;;;;;;21.39;29.23;98339.84;5020421;28;1071;-78
2023/09/08 04:27:03;;;;;;;;;;;;;;;21.51;28.78;98342.81;5020308;28;1148;-78
2023/09/08 04:29:28;;;;;;;;;;;;;;;21.31;29.11;98336.38;5003912;28;1233;-78
2023/09/08 04:31:54;;;;;;;;;;;;;;;21.23;29.19;98341.31;5004228;28;1310;-78
2023/09/08 04:34:20;;;;;;;;;;;;;;;21.10;29.71;98343.22;5020127;28;1911;-78
2023/09/08 04:36:45;;;;;;;;;;;;;;;21.42;28.97;98338.97;5020179;28;851;-77
2023/09/08 04:39:11;;;;;;;;;;;;;;;21.38;29.13;98341.06;5020116;28;1297;-78
2023/09/08 04:41:37;;;;;;;;;;;;;;;21.37;29.08;98336.66;5036548;28;826;-78
2023/09/08 04:44:03;;;;;;;;;;;;;;;21.47;28.97;98339.25;5020233;28;1134;-78
2023/09/08 04:46:28;;;;;;;;;;;;;;;21.32;29.41;98344.41;5000164;28;1130;-78
2023/09/08 04:48:54;;;;;;;;;;;;;;;21.58;28.86;98341.88;5000345;28;1088;-78
2023/09/08 04:51:22;;;;;;;;;;;;;;;21.31;29.60;98340.00;4999115;28;1143;-77
2023/09/08 04:53:47;;;;;;;;;;;;;;;21.38;29.51;98341.06;5000055;28;1918;-78
2023/09/08 04:56:13;;;;;;;;;;;;;;;21.28;29.46;98332.34;5000223;28;1163;-78
2023/09/08 04:58:40;;;;;;;;;;;;;;;21.55;29.23;98335.06;4999856;28;1447;-78
2023/09/08 05:01:06;;;;;;;;;;;;;;;21.39;29.64;98342.66;5000372;28;1198;-77
2023/09/08 05:03:31;;;;;;;;;;;;;;;21.30;29.90;98341.22;5000128;28;1305;-78
2023/09/08 05:05:57;;;;;;;;;;;;;;;21.44;29.62;98339.34;5000178;28;1367;-78
2023/09/08 05:08:23;;;;;;;;;;;;;;;21.22;29.97;98334.06;5000027;28;906;-77
2023/09/08 05:10:49;;;;;;;;;;;;;;;21.62;29.44;98339.78;4999857;28;1180;-78
2023/09/08 05:13:16;;;;;;;;;;;;;;;21.41;29.59;98345.88;4999308;28;1160;-78
2023/09/08 05:15:43;;;;;;;;;;;;;;;21.40;29.46;98341.44;4999434;28;1910;-78
2023/09/08 05:18:10;;;;;;;;;;;;;;;21.30;29.76;98335.56;5031470;28;1163;-77
2023/09/08 05:20:35;;;;;;;;;;;;;;;21.51;29.54;98347.69;5038820;28;1127;-78
2023/09/08 05:23:01;;;;;;;;;;;;;;;21.49;29.59;98347.31;5022387;28;1077;-78
2023/09/08 05:25:26;;;;;;;;;;;;;;;21.53;29.71;98348.03;5035402;28;1179;-78
2023/09/08 05:27:52;;;;;;;;;;;;;;;21.43;30.06;98343.41;5057684;28;758;-77
2023/09/08 05:30:37;;;;;;;;;;;;;;;21.61;29.55;98343.84;5015469;28;1022;-78
2023/09/08 05:33:03;;;;;;;;;;;;;;;21.48;29.97;98338.03;4998801;28;1214;-78
2023/09/08 05:35:29;;;;;;;;;;;;;;;21.63;29.74;98347.03;5015510;28;1981;-78
2023/09/08 05:37:54;;;;;;;;;;;;;;;21.74;29.40;98346.78;4999384;28;1155;-77
2023/09/08 05:40:24;;;;;;;;;;;;;;;21.27;30.08;98353.38;5015642;28;980;-78
2023/09/08 05:42:49;;;;;;;;;;;;;;;21.18;30.57;98352.34;4999631;28;1358;-78
2023/09/08 05:45:15;;;;;;;;;;;;;;;21.47;30.24;98352.63;5015716;28;1149;-79
2023/09/08 05:47:41;;;;;;;;;;;;;;;21.56;30.14;98352.84;4999211;28;810;-78
2023/09/08 05:50:06;;;;;;;;;;;;;;;21.55;30.32;98348.41;4995551;28;1303;-78
2023/09/08 05:52:33;;;;;;;;;;;;;;;21.47;30.31;98341.31;4996006;28;1255;-77
2023/09/08 05:54:59;;;;;;;;;;;;;;;21.46;30.61;98345.38;4995695;28;1907;-78
2023/09/08 05:57:24;;;;;;;;;;;;;;;21.65;30.14;98355.88;4979628;28;1206;-78
2023/09/08 05:59:50;;;;;;;;;;;;;;;21.35;30.58;98359.75;4995546;28;1252;-78
2023/09/08 06:02:15;;;;;;;;;;;;;;;21.28;30.75;98366.28;5032188;28;1120;-78
2023/09/08 06:04:41;;;;;;;;;;;;;;;21.57;30.37;98360.09;5038637;28;864;-77
2023/09/08 06:07:07;;;;;;;;;;;;;;;21.76;29.96;98373.47;5021405;28;1244;-78
2023/09/08 06:09:33;;;;;;;;;;;;;;;21.62;30.50;98373.75;5022022;28;1580;-77
2023/09/08 06:11:58;;;;;;;;;;;;;;;21.70;30.38;98378.00;5037999;28;1202;-78
2023/09/08 06:14:24;;;;;;;;;;;;;;;21.63;30.73;98369.69;5021559;28;1898;-78
2023/09/08 06:16:50;;;;;;;;;;;;;;;21.73;30.42;98382.81;5038243;28;1091;-78
2023/09/08 06:19:16;;;;;;;;;;;;;;;21.65;30.55;98381.34;5021866;28;1080;-78
2023/09/08 06:21:42;;;;;;;;;;;;;;;21.57;30.92;98377.09;5053246;28;908;-77
2023/09/08 06:24:07;;;;;;;;;;;;;;;21.72;30.90;98383.25;5074660;28;858;-78
2023/09/08 06:26:34;;;;;;;;;;;;;;;21.75;30.81;98382.38;5058124;28;1219;-78
2023/09/08 06:29:00;;;;;;;;;;;;;;;21.90;30.56;98392.16;5055436;28;1066;-78
2023/09/08 06:31:25;;;;;;;;;;;;;;;21.97;30.33;98388.41;5038250;28;924;-77
2023/09/08 06:33:51;;;;;;;;;;;;;;;21.73;30.51;98379.97;5055404;28;1906;-77
2023/09/08 06:36:18;;;;;;;;;;;;;;;21.61;31.05;98388.34;5039380;28;1135;-78
2023/09/08 06:38:46;;;;;;;;;;;;;;;21.69;30.75;98384.91;5055869;28;1358;-78
2023/09/08 06:41:12;;;;;;;;;;;;;;;21.55;31.27;98390.88;5056055;28;1279;-78
2023/09/08 06:43:37;;;;;;;;;;;;;;;21.82;30.87;98388.69;5023578;28;1241;-78
2023/09/08 06:46:09;;;;;;;;;;;;;;;21.87;30.84;98389.44;5044339;28;1230;-78
2023/09/08 06:48:34;;;;;;;;;;;;;;;21.83;30.92;98390.28;5042855;28;1300;-78
2023/09/08 06:51:00;;;;;;;;;;;;;;;21.61;31.14;98377.81;5022578;28;1282;-78
2023/09/08 06:53:26;;;;;;;;;;;;;;;21.43;31.78;98383.03;5021958;28;1405;-77
2023/09/08 06:55:52;;;;;;;;;;;;;;;21.84;30.98;98386.22;5005691;28;1992;-79
2023/09/08 06:58:18;;;;;;;;;;;;;;;21.69;31.12;98384.91;4989437;28;1206;-79
2023/09/08 07:00:43;;;;;;;;;;;;;;;22.12;30.44;98395.34;5005716;28;1255;-78
2023/09/08 07:03:09;;;;;;;;;;;;;;;21.76;31.21;98401.78;5038562;28;1115;-77
2023/09/08 07:05:35;;;;;;;;;;;;;;;21.71;30.96;98399.47;5005626;28;1060;-78
2023/09/08 07:08:01;;;;;;;;;;;;;;;21.71;31.37;98399.47;5022104;28;782;-78
2023/09/08 07:10:27;;;;;;;;;;;;;;;21.83;31.08;98401.63;5038364;28;1280;-78
2023/09/08 07:12:53;;;;;;;;;;;;;;;21.75;31.26;98405.81;5021875;28;1304;-77
2023/09/08 07:15:18;;;;;;;;;;;;;;;21.85;30.86;98404.81;5037989;28;1979;-78
2023/09/08 07:17:45;;;;;;;;;;;;;;;21.76;31.08;98415.94;5005382;28;1148;-78
2023/09/08 07:20:11;;;;;;;;;;;;;;;21.73;30.99;98419.63;5022235;28;1021;-77
2023/09/08 07:22:37;;;;;;;;;;;;;;;21.82;30.78;98400.03;5012450;28;1263;-78
2023/09/08 07:25:03;;;;;;;;;;;;;;;21.89;30.85;98404.72;5005334;28;1302;-78
2023/09/08 07:27:29;;;;;;;;;;;;;;;21.61;30.96;98411.81;5005320;28;1131;-77
2023/09/08 07:29:54;;;;;;;;;;;;;;;21.67;30.82;98409.25;4982247;28;1269;-78
2023/09/08 07:32:20;;;;;;;;;;;;;;;21.78;30.54;98421.97;4982564;28;1247;-78
2023/09/08 07:34:47;;;;;;;;;;;;;;;21.75;30.75;98411.50;4982217;28;1914;-77
2023/09/08 07:37:13;;;;;;;;;;;;;;;21.60;31.01;98413.00;4982361;28;1187;-78
2023/09/08 07:39:39;;;;;;;;;;;;;;;21.76;30.51;98412.28;4959420;29;1259;-78
2023/09/08 07:42:04;;;;;;;;;;;;;;;21.95;30.16;98410.69;4976091;28;1123;-77
2023/09/08 07:44:30;;;;;;;;;;;;;;;21.73;30.80;98413.19;4959343;29;891;-78
2023/09/08 07:46:56;;;;;;;;;;;;;;;21.95;30.35;98413.50;4975660;28;1068;-78
2023/09/08 07:49:22;;;;;;;;;;;;;;;21.82;30.67;98425.53;4959350;29;1335;-78
2023/09/08 07:51:47;;;;;;;;;;;;;;;21.83;30.93;98429.94;4937023;29;1126;-77
2023/09/08 07:54:13;;;;;;;;;;;;;;;21.79;30.65;98423.56;4936407;29;1966;-78
2023/09/08 07:56:40;;;;;;;;;;;;;;;21.60;30.94;98432.84;4936476;29;1143;-78
2023/09/08 07:59:06;;;;;;;;;;;;;;;21.77;30.75;98428.88;4923268;29;1175;-78
2023/09/08 08:01:32;;;;;;;;;;;;;;;21.99;30.60;98420.72;4955723;28;1210;-77
2023/09/08 08:03:57;;;;;;;;;;;;;;;21.74;30.79;98426.91;4923761;29;983;-78
2023/09/08 08:06:23;;;;;;;;;;;;;;;21.56;31.13;98426.47;4939813;29;897;-78
2023/09/08 08:08:48;;;;;;;;;;;;;;;21.68;30.93;98414.47;4939660;29;1208;-78
2023/09/08 08:11:14;;;;;;;;;;;;;;;21.71;30.86;98415.63;4939418;29;1055;-78
2023/09/08 08:13:40;;;;;;;;;;;;;;;21.67;30.92;98420.59;4939474;29;808;-77
2023/09/08 08:16:05;;;;;;;;;;;;;;;21.64;30.89;98422.25;4944839;28;1911;-78
2023/09/08 08:18:31;;;;;;;;;;;;;;;21.87;30.63;98423.41;4981058;28;980;-78
2023/09/08 08:20:57;;;;;;;;;;;;;;;21.92;30.34;98420.88;4997643;28;882;-78
2023/09/08 08:23:22;;;;;;;;;;;;;;;21.92;30.51;98420.06;5022864;28;1140;-78
2023/09/08 08:25:51;;;;;;;;;;;;;;;21.83;30.81;98424.28;5038133;28;916;-78
2023/09/08 08:28:16;;;;;;;;;;;;;;;21.82;30.73;98428.34;5038032;28;1225;-78
2023/09/08 08:30:42;;;;;;;;;;;;;;;21.72;30.91;98422.91;5037853;28;922;-77
2023/09/08 08:33:07;;;;;;;;;;;;;;;21.92;30.45;98431.41;5005247;28;1234;-78
2023/09/08 08:35:33;;;;;;;;;;;;;;;21.59;30.99;98436.91;5038896;28;1906;-78
2023/09/08 08:37:59;;;;;;;;;;;;;;;21.81;30.62;98429.59;5021450;28;1127;-77
2023/09/08 08:40:26;;;;;;;;;;;;;;;21.64;30.93;98422.25;5037322;28;1043;-78
2023/09/08 08:42:55;;;;;;;;;;;;;;;21.47;31.08;98435.53;5021670;28;843;-78
2023/09/08 08:45:22;;;;;;;;;;;;;;;21.67;30.96;98427.06;5038860;28;818;-78
2023/09/08 08:47:47;;;;;;;;;;;;;;;21.83;30.38;98424.28;5020881;28;896;-77
2023/09/08 08:50:13;;;;;;;;;;;;;;;21.79;30.58;98429.22;5038452;28;887;-78
2023/09/08 08:52:40;;;;;;;;;;;;;;;21.91;30.52;98435.44;5038846;28;901;-77
2023/09/08 08:55:06;;;;;;;;;;;;;;;21.65;30.89;98437.19;5037271;28;1980;-78
2023/09/08 08:57:31;;;;;;;;;;;;;;;21.68;30.86;98428.63;5020065;28;950;-78
2023/09/08 08:59:57;;;;;;;;;;;;;;;22.13;29.88;98427.34;5037652;28;803;-78
2023/09/08 09:02:22;;;;;;;;;;;;;;;21.95;30.16;98419.19;5035969;28;984;-77
2023/09/08 09:04:48;;;;;;;;;;;;;;;21.82;30.67;98417.03;5019525;28;1464;-78
2023/09/08 09:07:13;;;;;;;;;;;;;;;21.84;30.57;98413.75;5018651;28;801;-77
2023/09/08 09:09:40;;;;;;;;;;;;;;;21.96;30.05;98415.09;5036999;28;775;-78
2023/09/08 09:12:05;;;;;;;;;;;;;;;21.74;30.52;98421.22;4986726;28;1211;-77
2023/09/08 09:14:35;;;;;;;;;;;;;;;21.68;30.63;98405.19;5003226;28;1910;-78
2023/09/08 09:17:01;;;;;;;;;;;;;;;21.82;30.51;98414.19;5035581;28;891;-77
2023/09/08 09:19:31;;;;;;;;;;;;;;;21.90;30.36;98416.88;5036187;28;910;-78
2023/09/08 09:21:57;;;;;;;;;;;;;;;21.57;30.86;98416.72;5020146;28;870;-78
2023/09/08 09:24:32;;;;;;;;;;;;;;;21.67;30.78;98421.38;5019274;28;869;-77
2023/09/08 09:26:58;;;;;;;;;;;;;;;21.86;30.49;98422.59;5019073;28;1010;-78
2023/09/08 09:29:24;;;;;;;;;;;;;;;21.85;30.52;98421.81;5019407;28;1446;-78
2023/09/08 09:31:56;;;;;;;;;;;;;;;21.77;30.73;98414.69;5019242;28;836;-78
2023/09/08 09:34:21;;;;;;;;;;;;;;;21.69;30.59;98407.56;5037565;28;1980;-78
2023/09/08 09:36:49;;;;;;;;;;;;;;;21.71;30.59;98396.63;5022430;28;1179;-78
2023/09/08 09:39:16;;;;;;;;;;;;;;;21.91;30.25;98398.63;5022236;28;878;-78
2023/09/08 09:41:41;;;;;;;;;;;;;;;21.91;30.16;98396.59;5038674;28;876;-78
2023/09/08 09:44:07;;;;;;;;;;;;;;;21.76;30.66;98401.78;5022122;28;867;-77
2023/09/08 09:46:33;;;;;;;;;;;;;;;21.88;30.45;98400.31;5022417;28;1150;-77
2023/09/08 09:48:58;;;;;;;;;;;;;;;21.89;30.22;98409.59;5036021;28;871;-77
2023/09/08 09:51:24;;;;;;;;;;;;;;;21.96;29.98;98403.78;5037694;28;806;-78
2023/09/08 09:53:50;;;;;;;;;;;;;;;21.90;30.29;98412.00;5037012;28;1906;-78
2023/09/08 09:56:17;;;;;;;;;;;;;;;21.87;30.46;98404.38;5020377;28;1025;-78
2023/09/08 09:58:42;;;;;;;;;;;;;;;22.04;30.24;98408.06;5019694;28;853;-77
2023/09/08 10:01:08;;;;;;;;;;;;;;;21.65;30.81;98397.56;5037400;28;937;-78
2023/09/08 10:03:33;;;;;;;;;;;;;;;21.84;30.84;98400.38;5034620;28;936;-78
2023/09/08 10:05:59;;;;;;;;;;;;;;;21.95;30.41;98393.69;5018610;28;1280;-78
2023/09/08 10:08:24;;;;;;;;;;;;;;;21.84;30.79;98391.09;5018555;28;921;-78
2023/09/08 10:10:50;;;;;;;;;;;;;;;21.75;30.65;98388.03;5018853;28;1081;-77
2023/09/08 10:13:21;;;;;;;;;;;;;;;21.78;30.75;98382.31;5018281;28;950;-77
2023/09/08 10:15:47;;;;;;;;;;;;;;;21.90;30.61;98389.34;5025261;28;1984;-78
2023/09/08 10:18:14;;;;;;;;;;;;;;;21.98;30.27;98384.31;5054571;28;870;-78
2023/09/08 10:20:39;;;;;;;;;;;;;;;21.96;30.48;98383.94;5038310;28;945;-77
2023/09/08 10:23:25;;;;;;;;;;;;;;;22.02;30.46;98391.50;5038415;28;761;-77
2023/09/08 10:25:54;;;;;;;;;;;;;;;21.68;31.14;98382.53;5038256;28;815;-78
2023/09/08 10:28:20;;;;;;;;;;;;;;;21.82;31.01;98385.06;5038403;28;902;-77
2023/09/08 10:30:46;;;;;;;;;;;;;;;21.78;30.94;98387.97;5038095;28;858;-78
2023/09/08 10:33:11;;;;;;;;;;;;;;;21.72;31.25;98384.06;5038291;28;975;-77
2023/09/08 10:35:37;;;;;;;;;;;;;;;22.03;30.66;98389.47;5056429;28;1983;-77
2023/09/08 10:38:41;;;;;;;;;;;;;;;21.83;30.86;98390.28;5072183;28;855;-78
2023/09/08 10:41:15;;;;;;;;;;;;;;;21.68;31.35;98388.19;5018266;28;936;-78
2023/09/08 10:43:44;;;;;;;;;;;;;;;21.73;31.20;98396.97;5034363;28;967;-78
2023/09/08 10:46:10;;;;;;;;;;;;;;;22.09;30.36;98397.00;5034444;28;871;-78
2023/09/08 10:48:42;;;;;;;;;;;;;;;22.07;30.65;98387.34;5034497;28;963;-78
2023/09/08 10:51:13;;;;;;;;;;;;;;;22.29;30.10;98377.16;5002251;28;1108;-78
2023/09/08 10:53:38;;;;;;;;;;;;;;;21.67;31.31;98387.41;5034884;28;963;-78
2023/09/08 10:56:04;;;;;;;;;;;;;;;21.66;31.09;98374.47;5018060;28;1902;-78
2023/09/08 10:58:38;;;;;;;;;;;;;;;21.92;30.84;98381.22;5034096;28;982;-77
2023/09/08 11:01:04;;;;;;;;;;;;;;;22.11;30.61;98376.75;5018389;28;822;-78
2023/09/08 11:03:38;;;;;;;;;;;;;;;22.29;30.44;98376.34;5017866;28;1006;-77
2023/09/08 11:06:04;;;;;;;;;;;;;;;21.97;30.88;98388.41;5034812;28;1068;-77
2023/09/08 11:08:29;;;;;;;;;;;;;;;21.82;31.13;98383.03;4995187;28;953;-77
2023/09/08 11:10:55;;;;;;;;;;;;;;;22.11;30.58;98376.75;4999339;28;1288;-78
2023/09/08 11:13:21;;;;;;;;;;;;;;;21.84;31.06;98385.41;5017740;28;925;-77
2023/09/08 11:15:46;;;;;;;;;;;;;;;21.98;30.93;98404.16;5034489;28;1910;-77
2023/09/08 11:18:12;;;;;;;;;;;;;;;22.12;30.39;98395.34;5017748;28;952;-78
2023/09/08 11:20:38;;;;;;;;;;;;;;;21.94;30.92;98394.94;5034584;28;921;-77
2023/09/08 11:23:04;;;;;;;;;;;;;;;21.92;31.15;98388.91;5034638;28;799;-78
2023/09/08 11:25:32;;;;;;;;;;;;;;;22.01;30.89;98400.44;5034125;28;1040;-78
2023/09/08 11:27:57;;;;;;;;;;;;;;;22.30;30.51;98397.78;5018416;28;886;-78
2023/09/08 11:30:23;;;;;;;;;;;;;;;22.32;30.59;98393.25;5018963;28;1091;-78
2023/09/08 11:32:48;;;;;;;;;;;;;;;22.01;30.78;98378.56;5021625;28;922;-78
2023/09/08 11:35:15;;;;;;;;;;;;;;;21.95;30.90;98373.84;5021470;28;1918;-78
2023/09/08 11:37:41;;;;;;;;;;;;;;;21.92;31.01;98384.03;5037769;28;1095;-77
2023/09/08 11:40:13;;;;;;;;;;;;;;;22.03;30.74;98369.63;5037598;28;1408;-78
2023/09/08 11:42:43;;;;;;;;;;;;;;;22.15;30.33;98374.63;5021986;28;728;-78
2023/09/08 11:45:21;;;;;;;;;;;;;;;22.13;30.25;98373.50;5025613;28;1121;-77
2023/09/08 11:47:46;;;;;;;;;;;;;;;22.18;30.40;98370.16;5058914;28;953;-78
2023/09/08 11:50:15;;;;;;;;;;;;;;;22.15;30.14;98359.69;5075036;28;931;-78
2023/09/08 11:52:50;;;;;;;;;;;;;;;22.10;30.48;98369.47;5058278;28;927;-78
2023/09/08 11:55:16;;;;;;;;;;;;;;;22.21;30.33;98367.22;5075167;28;1977;-78
2023/09/08 11:57:41;;;;;;;;;;;;;;;22.16;30.35;98366.94;5059543;28;841;-77
2023/09/08 12:00:09;;;;;;;;;;;;;;;22.31;30.21;98357.66;5074939;28;945;-78
2023/09/08 12:02:36;;;;;;;;;;;;;;;22.23;30.55;98367.59;5074380;28;894;-77
2023/09/08 12:05:02;;;;;;;;;;;;;;;22.02;30.54;98353.84;5057904;28;802;-78
2023/09/08 12:07:28;;;;;;;;;;;;;;;22.08;30.69;98360.63;5058227;28;789;-77
2023/09/08 12:09:53;;;;;;;;;;;;;;;21.68;31.17;98355.00;5075063;28;1040;-77
2023/09/08 12:12:19;;;;;;;;;;;;;;;21.85;30.86;98353.81;5059544;28;822;-78
2023/09/08 12:14:44;;;;;;;;;;;;;;;22.02;30.58;98351.00;5059112;28;1980;-77
2023/09/08 12:17:10;;;;;;;;;;;;;;;22.04;30.64;98342.88;5059455;28;937;-77
2023/09/08 12:19:38;;;;;;;;;;;;;;;21.99;30.67;98340.56;5074711;28;1077;-78
2023/09/08 12:22:04;;;;;;;;;;;;;;;21.74;31.16;98353.25;5073891;28;865;-77
2023/09/08 12:24:45;;;;;;;;;;;;;;;21.89;30.87;98347.28;5059401;28;918;-78
2023/09/08 12:27:11;;;;;;;;;;;;;;;22.13;30.50;98345.97;5074667;28;985;-77
2023/09/08 12:29:36;;;;;;;;;;;;;;;21.99;30.56;98340.56;5059019;28;763;-78
2023/09/08 12:32:02;;;;;;;;;;;;;;;22.03;30.70;98335.63;5074453;28;880;-78
2023/09/08 12:34:28;;;;;;;;;;;;;;;21.95;30.80;98351.19;5057558;28;1972;-77
2023/09/08 12:36:55;;;;;;;;;;;;;;;22.18;30.10;98341.81;5058863;28;842;-77
2023/09/08 12:39:20;;;;;;;;;;;;;;;21.75;30.78;98346.34;5074743;28;838;-78
2023/09/08 12:41:46;;;;;;;;;;;;;;;21.96;30.61;98335.78;5058541;28;864;-78
2023/09/08 12:44:11;;;;;;;;;;;;;;;22.07;30.51;98354.16;5074609;28;776;-78
2023/09/08 12:46:37;;;;;;;;;;;;;;;22.12;30.22;98344.34;5057926;28;827;-77
2023/09/08 12:49:02;;;;;;;;;;;;;;;22.25;30.03;98336.75;5074165;28;905;-78
2023/09/08 12:51:28;;;;;;;;;;;;;;;22.09;30.28;98339.53;5058655;28;1105;-78
2023/09/08 12:53:53;;;;;;;;;;;;;;;22.15;30.40;98337.78;5056438;28;879;-77
2023/09/08 12:56:19;;;;;;;;;;;;;;;21.70;31.04;98335.53;5056499;28;988;-77